createdAt,value
2023-04-25T00:01:47.725Z,6.25
2023-04-25T00:04:46.661Z,5.88
2023-04-25T00:07:44.660Z,6.75
2023-04-25T00:10:42.600Z,6.63
2023-04-25T00:13:43.183Z,6.75
2023-04-25T00:16:42.724Z,7.07
2023-04-25T00:19:40.643Z,6.43
2023-04-25T00:22:39.794Z,7.30
2023-04-25T00:25:37.987Z,7.07
2023-04-25T00:28:35.921Z,6.85
2023-04-25T00:31:33.822Z,6.13
2023-04-25T00:34:31.896Z,6.75
2023-04-25T00:37:29.796Z,6.35
2023-04-25T00:40:27.938Z,7.70
2023-04-25T00:43:28.763Z,7.18
2023-04-25T00:46:26.991Z,6.85
2023-04-25T00:49:24.841Z,6.57
2023-04-25T00:52:23.032Z,7.20
2023-04-25T00:55:21.769Z,8.48
2023-04-25T00:58:20.234Z,8.85
2023-04-25T01:01:18.205Z,9.35
2023-04-25T01:04:16.496Z,9.93
2023-04-25T01:07:14.598Z,9.70
2023-04-25T01:10:12.668Z,9.52
2023-04-25T01:13:10.544Z,9.25
2023-04-25T01:16:08.684Z,8.35
2023-04-25T01:19:16.750Z,7.38
2023-04-25T01:22:15.966Z,7.57
2023-04-25T01:25:13.939Z,7.50
2023-04-25T01:28:12.370Z,7.85
2023-04-25T01:31:11.034Z,8.30
2023-04-25T01:34:08.925Z,8.70
2023-04-25T01:37:06.741Z,8.77
2023-04-25T01:40:07.036Z,9.15
2023-04-25T01:43:04.965Z,8.48
2023-04-25T01:46:03.031Z,8.57
2023-04-25T01:49:00.892Z,8.98
2023-04-25T01:51:58.800Z,8.10
2023-04-25T01:54:58.611Z,9.32
2023-04-25T01:57:56.506Z,9.27
2023-04-25T02:00:55.311Z,9.68
2023-04-25T02:03:53.872Z,13.38
2023-04-25T02:06:52.084Z,13.25
2023-04-25T02:09:50.447Z,12.98
2023-04-25T02:12:48.235Z,11.45
2023-04-25T02:15:46.398Z,11.02
2023-04-25T02:18:44.434Z,10.13
2023-04-25T02:21:42.400Z,8.77
2023-04-25T02:24:41.335Z,9.50
2023-04-25T02:27:39.477Z,9.27
2023-04-25T02:30:37.554Z,10.38
2023-04-25T02:33:36.086Z,10.45
2023-04-25T02:36:35.757Z,10.40
2023-04-25T02:39:33.676Z,11.80
2023-04-25T02:42:31.608Z,12.68
2023-04-25T02:45:29.535Z,12.77
2023-04-25T02:48:27.381Z,11.60
2023-04-25T02:51:25.281Z,10.45
2023-04-25T02:54:23.623Z,10.20
2023-04-25T02:57:21.564Z,8.93
2023-04-25T03:00:19.537Z,8.80
2023-04-25T03:03:19.545Z,8.35
2023-04-25T03:06:17.462Z,8.02
2023-04-25T03:09:15.447Z,7.65
2023-04-25T03:12:13.281Z,7.03
2023-04-25T03:15:11.717Z,6.53
2023-04-25T03:18:09.554Z,7.07
2023-04-25T03:21:07.529Z,7.30
2023-04-25T03:24:06.358Z,7.38
2023-04-25T03:27:04.319Z,6.57
2023-04-25T03:30:02.316Z,6.28
2023-04-25T03:33:01.071Z,6.25
2023-04-25T03:35:58.978Z,6.05
2023-04-25T03:38:56.975Z,5.63
2023-04-25T03:41:54.766Z,4.30
2023-04-25T03:44:53.699Z,4.22
2023-04-25T03:47:51.526Z,3.83
2023-04-25T03:50:49.760Z,3.70
2023-04-25T03:53:49.789Z,3.42
2023-04-25T03:56:48.052Z,3.80
2023-04-25T03:59:46.274Z,3.88
2023-04-25T04:02:45.568Z,3.60
2023-04-25T04:05:43.600Z,3.47
2023-04-25T04:08:41.678Z,3.90
2023-04-25T04:11:40.252Z,4.40
2023-04-25T04:14:38.215Z,5.35
2023-04-25T04:17:36.394Z,7.15
2023-04-25T04:20:34.466Z,6.07
2023-04-25T04:23:32.680Z,5.57
2023-04-25T04:26:30.608Z,4.93
2023-04-25T04:29:28.723Z,3.83
2023-04-25T04:32:27.206Z,3.33
2023-04-25T04:35:25.639Z,3.75
2023-04-25T04:38:23.720Z,3.30
2023-04-25T04:41:21.500Z,4.00
2023-04-25T04:44:19.382Z,4.90
2023-04-25T04:47:17.156Z,5.03
2023-04-25T04:50:16.547Z,5.55
2023-04-25T04:53:14.964Z,6.40
2023-04-25T04:56:12.888Z,5.97
2023-04-25T04:59:10.766Z,6.43
2023-04-25T05:02:08.733Z,6.75
2023-04-25T05:05:07.492Z,6.50
2023-04-25T05:08:05.457Z,7.72
2023-04-25T05:11:03.347Z,8.15
2023-04-25T05:14:01.407Z,8.40
2023-04-25T05:17:00.454Z,9.07
2023-04-25T05:19:58.739Z,10.95
2023-04-25T05:22:56.646Z,9.57
2023-04-25T05:25:54.983Z,9.05
2023-04-25T05:28:52.741Z,8.93
2023-04-25T05:31:50.829Z,10.32
2023-04-25T05:34:48.731Z,8.48
2023-04-25T05:37:46.712Z,8.65
2023-04-25T05:40:44.557Z,7.40
2023-04-25T05:43:46.876Z,8.27
2023-04-25T05:46:44.950Z,7.85
2023-04-25T05:49:42.865Z,8.55
2023-04-25T05:52:40.753Z,8.50
2023-04-25T05:55:38.688Z,8.80
2023-04-25T05:58:36.560Z,7.32
2023-04-25T06:01:34.489Z,7.50
2023-04-25T06:04:32.493Z,7.53
2023-04-25T06:07:32.217Z,9.40
2023-04-25T06:10:30.639Z,7.53
2023-04-25T06:13:28.680Z,8.18
2023-04-25T06:16:27.624Z,9.13
2023-04-25T06:19:25.735Z,7.10
2023-04-25T06:22:23.540Z,7.75
2023-04-25T06:25:21.875Z,7.78
2023-04-25T06:28:20.662Z,8.18
2023-04-25T06:31:18.623Z,8.32
2023-04-25T06:34:16.893Z,9.00
2023-04-25T06:37:15.561Z,8.77
2023-04-25T06:40:13.527Z,8.00
2023-04-25T06:43:11.712Z,8.32
2023-04-25T06:46:09.505Z,8.02
2023-04-25T06:49:07.406Z,8.18
2023-04-25T06:52:05.315Z,7.75
2023-04-25T06:55:03.208Z,6.97
2023-04-25T06:58:01.528Z,8.13
2023-04-25T07:00:59.567Z,7.13
2023-04-25T07:03:57.490Z,6.82
2023-04-25T07:06:56.402Z,7.63
2023-04-25T07:09:54.140Z,6.93
2023-04-25T07:12:51.986Z,8.43
2023-04-25T07:15:50.123Z,9.55
2023-04-25T07:18:47.945Z,8.23
2023-04-25T07:21:45.692Z,8.65
2023-04-25T07:24:43.562Z,7.85
2023-04-25T07:27:41.326Z,8.15
2023-04-25T07:30:39.150Z,8.15
2023-04-25T07:33:37.340Z,8.00
2023-04-25T07:36:35.278Z,8.15
2023-04-25T07:39:33.380Z,9.65
2023-04-25T07:42:31.551Z,8.27
2023-04-25T07:45:29.339Z,8.02
2023-04-25T07:48:27.125Z,8.55
2023-04-25T07:51:24.898Z,8.82
2023-04-25T07:54:22.819Z,7.35
2023-04-25T07:57:21.730Z,7.55
2023-04-25T08:00:19.910Z,6.80
2023-04-25T08:03:17.841Z,7.90
2023-04-25T08:06:16.025Z,7.93
2023-04-25T08:09:13.887Z,7.40
2023-04-25T08:12:11.874Z,7.25
2023-04-25T08:15:10.729Z,6.80
2023-04-25T08:18:08.952Z,6.10
2023-04-25T08:21:08.246Z,6.10
2023-04-25T08:24:06.197Z,6.50
2023-04-25T08:27:04.049Z,6.85
2023-04-25T08:30:01.963Z,6.63
2023-04-25T08:32:59.830Z,7.57
2023-04-25T08:35:57.895Z,6.53
2023-04-25T08:38:56.623Z,6.20
2023-04-25T08:41:55.173Z,6.65
2023-04-25T08:44:54.723Z,7.32
2023-04-25T08:47:54.808Z,6.10
2023-04-25T08:50:55.951Z,6.13
2023-04-25T08:53:57.822Z,6.57
2023-04-25T08:57:03.423Z,7.07
2023-04-25T09:00:03.589Z,5.72
2023-04-25T09:03:01.666Z,7.00
2023-04-25T09:06:00.670Z,7.15
2023-04-25T09:09:07.708Z,6.55
2023-04-25T09:12:06.869Z,6.40
2023-04-25T09:15:11.245Z,6.80
2023-04-25T09:18:09.203Z,6.30
2023-04-25T09:21:13.751Z,6.05
2023-04-25T09:24:12.485Z,6.03
2023-04-25T09:27:12.362Z,6.32
2023-04-25T09:30:10.640Z,5.95
2023-04-25T09:33:11.717Z,7.13
2023-04-25T09:36:13.045Z,6.80
2023-04-25T09:39:16.880Z,6.43
2023-04-25T09:42:17.372Z,7.07
2023-04-25T09:45:16.630Z,6.93
2023-04-25T09:48:23.182Z,8.20
2023-04-25T09:51:20.981Z,7.97
2023-04-25T09:54:18.920Z,7.20
2023-04-25T09:57:19.206Z,7.35
2023-04-25T10:00:17.888Z,6.57
2023-04-25T10:03:17.266Z,6.70
2023-04-25T10:06:20.858Z,6.35
2023-04-25T10:09:20.261Z,6.75
2023-04-25T10:12:18.908Z,5.00
2023-04-25T10:15:17.193Z,5.20
2023-04-25T10:18:15.318Z,5.32
2023-04-25T10:21:14.312Z,5.70
2023-04-25T10:24:12.404Z,5.45
2023-04-25T10:27:10.509Z,5.65
2023-04-25T10:30:14.104Z,5.65
2023-04-25T10:33:21.247Z,7.32
2023-04-25T10:36:22.903Z,6.47
2023-04-25T10:39:25.939Z,5.03
2023-04-25T10:42:23.777Z,5.70
2023-04-25T10:45:22.315Z,5.63
2023-04-25T10:48:36.251Z,6.22
2023-04-25T10:51:51.633Z,6.38
2023-04-25T10:54:56.331Z,5.70
2023-04-25T10:57:55.123Z,5.30
2023-04-25T11:00:57.436Z,4.47
2023-04-25T11:04:00.252Z,5.97
2023-04-25T11:07:29.173Z,5.45
2023-04-25T11:10:32.737Z,6.05
2023-04-25T11:13:32.761Z,5.90
2023-04-25T11:16:32.558Z,5.82
2023-04-25T11:19:31.383Z,6.15
2023-04-25T11:22:30.116Z,6.13
2023-04-25T11:25:28.473Z,5.47
2023-04-25T11:28:27.277Z,6.03
2023-04-25T11:31:27.230Z,6.50
2023-04-25T11:34:26.255Z,10.02
2023-04-25T11:37:24.536Z,12.98
2023-04-25T11:40:22.606Z,7.20
2023-04-25T11:43:23.537Z,5.82
2023-04-25T11:46:21.780Z,5.90
2023-04-25T11:49:19.860Z,4.97
2023-04-25T11:52:17.735Z,5.82
2023-04-25T11:55:19.345Z,6.40
2023-04-25T11:58:17.314Z,5.03
2023-04-25T12:01:35.860Z,6.97
2023-04-25T12:04:34.450Z,6.57
2023-04-25T12:07:32.743Z,6.97
2023-04-25T12:10:31.777Z,7.10
2023-04-25T12:13:30.201Z,7.07
2023-04-25T12:16:28.315Z,6.10
2023-04-25T12:19:27.451Z,11.10
2023-04-25T12:22:26.419Z,6.75
2023-04-25T12:25:45.059Z,8.68
2023-04-25T12:28:49.899Z,7.50
2023-04-25T12:31:49.093Z,9.23
2023-04-25T12:34:47.663Z,12.10
2023-04-25T12:37:46.625Z,7.03
2023-04-25T12:40:44.415Z,7.43
2023-04-25T12:43:42.325Z,6.78
2023-04-25T12:46:40.622Z,5.40
2023-04-25T12:49:38.516Z,6.30
2023-04-25T12:52:36.282Z,6.28
2023-04-25T12:55:34.206Z,10.32
2023-04-25T12:58:32.111Z,28.23
2023-04-25T13:01:30.694Z,24.42
2023-04-25T13:04:29.214Z,11.35
2023-04-25T13:07:27.531Z,8.45
2023-04-25T13:10:25.403Z,6.35
2023-04-25T13:13:24.070Z,6.95
2023-04-25T13:16:22.877Z,5.97
2023-04-25T13:19:20.794Z,5.97
2023-04-25T13:22:20.822Z,6.47
2023-04-25T13:25:18.779Z,7.45
2023-04-25T13:28:17.524Z,8.55
2023-04-25T13:31:15.445Z,7.38
2023-04-25T13:34:14.161Z,8.15
2023-04-25T13:37:12.079Z,7.70
2023-04-25T13:40:12.601Z,7.50
2023-04-25T13:43:10.831Z,8.38
2023-04-25T13:46:09.695Z,7.40
2023-04-25T13:49:13.231Z,7.32
2023-04-25T13:52:11.271Z,6.75
2023-04-25T13:55:10.232Z,6.55
2023-04-25T13:58:09.350Z,7.63
2023-04-25T14:01:07.281Z,7.40
2023-04-25T14:04:06.427Z,7.30
2023-04-25T14:07:05.302Z,9.60
2023-04-25T14:10:03.923Z,8.77
2023-04-25T14:13:02.801Z,8.95
2023-04-25T14:16:00.659Z,7.65
2023-04-25T14:18:59.525Z,6.43
2023-04-25T14:21:57.768Z,6.00
2023-04-25T14:24:55.629Z,5.90
2023-04-25T14:27:53.559Z,6.13
2023-04-25T14:30:51.509Z,7.57
2023-04-25T14:33:49.665Z,6.25
2023-04-25T14:36:47.811Z,7.40
2023-04-25T14:39:46.558Z,7.60
2023-04-25T14:42:44.808Z,7.50
2023-04-25T14:45:42.749Z,6.03
2023-04-25T14:48:41.205Z,10.27
2023-04-25T14:51:38.991Z,7.90
2023-04-25T14:54:37.217Z,8.57
2023-04-25T14:57:36.144Z,9.23
2023-04-25T15:00:34.674Z,14.48
2023-04-25T15:03:33.560Z,11.55
2023-04-25T15:06:31.998Z,10.57
2023-04-25T15:09:30.146Z,9.20
2023-04-25T15:12:29.847Z,8.35
2023-04-25T15:15:28.120Z,8.25
2023-04-25T15:18:26.390Z,8.48
2023-04-25T15:21:24.260Z,8.82
2023-04-25T15:24:23.053Z,9.40
2023-04-25T15:27:20.850Z,9.52
2023-04-25T15:30:19.330Z,8.80
2023-04-25T15:33:17.325Z,8.65
2023-04-25T15:36:17.959Z,8.40
2023-04-25T15:39:16.799Z,8.60
2023-04-25T15:42:14.706Z,8.77
2023-04-25T15:45:12.915Z,8.75
2023-04-25T15:48:10.836Z,7.75
2023-04-25T15:51:08.649Z,8.20
2023-04-25T15:54:06.870Z,7.43
2023-04-25T15:57:04.740Z,8.10
2023-04-25T16:00:19.515Z,6.93
2023-04-25T16:03:17.738Z,7.25
2023-04-25T16:06:16.141Z,6.78
2023-04-25T16:09:13.915Z,6.80
2023-04-25T16:12:12.444Z,6.97
2023-04-25T16:15:12.004Z,7.25
2023-04-25T16:18:09.971Z,6.93
2023-04-25T16:21:07.832Z,6.97
2023-04-25T16:24:06.062Z,6.78
2023-04-25T16:27:04.390Z,6.97
2023-04-25T16:30:03.062Z,6.35
2023-04-25T16:33:01.000Z,6.85
2023-04-25T16:35:59.525Z,7.10
2023-04-25T16:38:57.293Z,6.90
2023-04-25T16:41:55.310Z,6.50
2023-04-25T16:44:53.259Z,7.38
2023-04-25T16:47:51.556Z,6.63
2023-04-25T16:50:49.439Z,6.60
2023-04-25T16:53:49.113Z,7.03
2023-04-25T16:56:47.110Z,6.28
2023-04-25T16:59:45.014Z,6.38
2023-04-25T17:02:42.949Z,6.22
2023-04-25T17:05:41.344Z,6.85
2023-04-25T17:08:39.534Z,6.88
2023-04-25T17:11:38.318Z,7.85
2023-04-25T17:14:37.632Z,9.38
2023-04-25T17:17:35.657Z,9.10
2023-04-25T17:20:34.256Z,8.52
2023-04-25T17:23:33.054Z,8.27
2023-04-25T17:26:30.904Z,8.30
2023-04-25T17:29:28.828Z,7.15
2023-04-25T17:32:27.953Z,7.60
2023-04-25T17:35:26.754Z,7.75
2023-04-25T17:38:24.533Z,7.50
2023-04-25T17:41:22.573Z,10.27
2023-04-25T17:44:20.376Z,9.48
2023-04-25T17:47:19.421Z,10.05
2023-04-25T17:50:17.417Z,8.88
2023-04-25T17:53:15.442Z,7.75
2023-04-25T17:56:26.010Z,6.80
2023-04-25T17:59:25.376Z,7.20
2023-04-25T18:02:23.305Z,6.57
2023-04-25T18:05:21.490Z,8.90
2023-04-25T18:08:19.327Z,6.65
2023-04-25T18:11:17.217Z,7.30
2023-04-25T18:14:16.347Z,7.40
2023-04-25T18:17:15.243Z,6.93
2023-04-25T18:20:16.984Z,6.57
2023-04-25T18:23:14.852Z,6.70
2023-04-25T18:26:12.703Z,7.00
2023-04-25T18:29:16.323Z,7.40
2023-04-25T18:32:20.005Z,6.50
2023-04-25T18:35:18.246Z,6.28
2023-04-25T18:38:21.562Z,6.43
2023-04-25T18:41:50.966Z,6.93
2023-04-25T18:44:44.508Z,7.65
2023-04-25T18:47:45.375Z,6.40
2023-04-25T18:50:44.467Z,7.72
2023-04-25T18:53:42.558Z,7.30
2023-04-25T18:56:41.747Z,7.20
2023-04-25T18:59:40.212Z,7.65
2023-04-25T19:02:38.549Z,7.18
2023-04-25T19:05:36.820Z,6.65
2023-04-25T19:08:34.647Z,6.82
2023-04-25T19:11:32.563Z,6.80
2023-04-25T19:14:32.971Z,6.80
2023-04-25T19:17:30.933Z,6.55
2023-04-25T19:20:29.029Z,6.55
2023-04-25T19:23:27.114Z,6.32
2023-04-25T19:26:25.412Z,6.47
2023-04-25T19:29:23.731Z,6.25
2023-04-25T19:32:21.625Z,6.20
2023-04-25T19:35:19.646Z,7.00
2023-04-25T19:38:17.566Z,6.75
2023-04-25T19:41:15.481Z,7.22
2023-04-25T19:44:13.383Z,6.85
2023-04-25T19:47:11.888Z,6.70
2023-04-25T19:50:11.035Z,6.50
2023-04-25T19:53:09.946Z,6.80
2023-04-25T19:56:08.263Z,6.90
2023-04-25T19:59:06.221Z,6.97
2023-04-25T20:02:05.358Z,6.90
2023-04-25T20:05:04.214Z,6.93
2023-04-25T20:08:03.175Z,7.43
2023-04-25T20:11:01.226Z,7.65
2023-04-25T20:13:59.216Z,6.85
2023-04-25T20:16:57.410Z,7.60
2023-04-25T20:19:55.287Z,7.35
2023-04-25T20:22:53.391Z,7.40
2023-04-25T20:25:53.251Z,7.18
2023-04-25T20:28:51.530Z,7.22
2023-04-25T20:31:51.501Z,6.97
2023-04-25T20:34:51.053Z,7.05
2023-04-25T20:37:48.962Z,7.18
2023-04-25T20:40:46.997Z,7.28
2023-04-25T20:43:45.039Z,6.72
2023-04-25T20:46:43.151Z,7.68
2023-04-25T20:49:41.407Z,7.30
2023-04-25T20:52:40.100Z,7.43
2023-04-25T20:55:37.956Z,6.97
2023-04-25T20:58:36.043Z,7.07
2023-04-25T21:01:35.041Z,7.15
2023-04-25T21:04:33.278Z,7.53
2023-04-25T21:07:31.960Z,6.53
2023-04-25T21:10:29.987Z,7.60
2023-04-25T21:13:29.445Z,6.95
2023-04-25T21:16:27.505Z,6.72
2023-04-25T21:19:25.427Z,7.30
2023-04-25T21:22:23.571Z,7.70
2023-04-25T21:25:25.838Z,7.38
2023-04-25T21:28:24.448Z,7.10
2023-04-25T21:31:22.909Z,7.05
2023-04-25T21:34:21.019Z,7.72
2023-04-25T21:37:18.933Z,6.97
2023-04-25T21:40:17.216Z,6.95
2023-04-25T21:43:15.090Z,7.25
2023-04-25T21:46:22.329Z,7.03
2023-04-25T21:49:23.932Z,8.00
2023-04-25T21:52:22.113Z,7.45
2023-04-25T21:55:20.385Z,7.57
2023-04-25T21:58:18.369Z,7.22
2023-04-25T22:01:16.399Z,7.72
2023-04-25T22:04:14.606Z,7.40
2023-04-25T22:07:13.057Z,7.35
2023-04-25T22:10:11.647Z,7.95
2023-04-25T22:13:10.624Z,7.82
2023-04-25T22:16:12.684Z,7.35
2023-04-25T22:19:10.726Z,7.40
2023-04-25T22:22:08.832Z,7.85
2023-04-25T22:25:07.893Z,7.50
2023-04-25T22:28:05.998Z,7.32
2023-04-25T22:31:04.280Z,7.63
2023-04-25T22:34:02.377Z,6.95
2023-04-25T22:37:00.441Z,6.70
2023-04-25T22:39:58.739Z,7.43
2023-04-25T22:42:57.507Z,7.32
2023-04-25T22:45:56.221Z,6.90
2023-04-25T22:48:54.673Z,7.00
2023-04-25T22:51:56.242Z,7.18
2023-04-25T22:54:54.165Z,7.32
2023-04-25T22:57:52.256Z,8.20
2023-04-25T23:00:51.513Z,7.68
2023-04-25T23:03:50.081Z,7.07
2023-04-25T23:06:48.414Z,8.13
2023-04-25T23:09:46.465Z,7.55
2023-04-25T23:12:44.548Z,7.38
2023-04-25T23:15:42.915Z,7.95
2023-04-25T23:18:41.544Z,7.13
2023-04-25T23:21:40.132Z,7.53
2023-04-25T23:24:41.326Z,7.10
2023-04-25T23:27:39.400Z,7.28
2023-04-25T23:30:37.416Z,7.18
2023-04-25T23:33:36.463Z,7.13
2023-04-25T23:36:34.428Z,7.28
2023-04-25T23:39:32.335Z,7.68
2023-04-25T23:42:30.095Z,7.30
2023-04-25T23:45:28.541Z,7.93
2023-04-25T23:48:26.575Z,7.32
2023-04-25T23:51:25.820Z,7.80
2023-04-25T23:54:23.982Z,8.10
2023-04-25T23:57:22.011Z,7.93
